Time;durP1;ratioP1;P1;durP2;ratioP2;P2;SDS_P1;SDS_P2;PMS_P1;PMS_P2;Temp;Humidity;BMP_temperature;BMP_pressure;BME280_temperature;BME280_humidity;BME280_pressure;Samples;Min_cycle;Max_cycle;Signal;HPM_P1;HPM_P2
2023/07/19 00:04:18;;;;;;;10.52;9.52;;;;;;;;;;10301586;28;20500;-67
2023/07/19 00:09:15;;;;;;;9.45;8.75;;;;;;;;;;10299848;28;20637;-68
2023/07/19 00:14:13;;;;;;;8.95;8.30;;;;;;;;;;10294210;28;20103;-68
2023/07/19 00:19:09;;;;;;;9.55;8.85;;;;;;;;;;10290822;28;20040;-67
2023/07/19 00:24:16;;;;;;;9.90;9.10;;;;;;;;;;10290925;28;20052;-67
2023/07/19 00:29:13;;;;;;;9.88;8.98;;;;;;;;;;10302699;28;20052;-67
2023/07/19 00:34:09;;;;;;;8.85;8.02;;;;;;;;;;10307309;28;20041;-67
2023/07/19 00:39:06;;;;;;;10.07;9.20;;;;;;;;;;10290203;28;20090;-67
2023/07/19 00:44:03;;;;;;;10.35;9.35;;;;;;;;;;10294582;28;20500;-67
2023/07/19 00:49:00;;;;;;;9.98;9.18;;;;;;;;;;10281645;28;20478;-67
2023/07/19 00:53:56;;;;;;;9.30;8.60;;;;;;;;;;10297486;28;20127;-67
2023/07/19 00:58:53;;;;;;;10.00;9.20;;;;;;;;;;10306350;28;20048;-67
2023/07/19 01:03:49;;;;;;;9.88;8.95;;;;;;;;;;10297906;28;20045;-68
2023/07/19 01:08:46;;;;;;;9.25;8.45;;;;;;;;;;10299663;28;20121;-67
2023/07/19 01:13:52;;;;;;;9.70;8.90;;;;;;;;;;10291437;28;20051;-67
2023/07/19 01:18:49;;;;;;;9.32;8.63;;;;;;;;;;10290746;28;20644;-67
2023/07/19 01:23:46;;;;;;;9.75;8.95;;;;;;;;;;10301243;28;20060;-68
2023/07/19 01:28:42;;;;;;;9.75;9.05;;;;;;;;;;10300721;28;20707;-68
2023/07/19 01:33:38;;;;;;;9.07;8.25;;;;;;;;;;10306165;28;20061;-68
2023/07/19 01:38:35;;;;;;;8.95;8.15;;;;;;;;;;10302488;28;20072;-67
2023/07/19 01:43:31;;;;;;;9.45;8.57;;;;;;;;;;10305320;28;20080;-67
2023/07/19 01:48:28;;;;;;;9.27;8.32;;;;;;;;;;10312105;28;20411;-69
2023/07/19 01:53:24;;;;;;;8.95;8.23;;;;;;;;;;10297064;28;20562;-69
2023/07/19 01:58:23;;;;;;;9.00;8.10;;;;;;;;;;10296142;28;20053;-67
2023/07/19 02:03:20;;;;;;;9.15;8.35;;;;;;;;;;10314776;28;20079;-69
2023/07/19 02:08:18;;;;;;;9.80;8.80;;;;;;;;;;10289665;28;20126;-67
2023/07/19 02:13:18;;;;;;;11.45;9.15;;;;;;;;;;10297168;28;20095;-67
2023/07/19 02:18:14;;;;;;;9.30;8.60;;;;;;;;;;10297710;28;20052;-68
2023/07/19 02:23:11;;;;;;;8.18;7.57;;;;;;;;;;10302465;28;20052;-68
2023/07/19 02:28:09;;;;;;;9.73;8.82;;;;;;;;;;10304346;28;20048;-67
2023/07/19 02:33:05;;;;;;;9.27;8.38;;;;;;;;;;10306365;28;20053;-67
2023/07/19 02:38:02;;;;;;;8.57;7.85;;;;;;;;;;10285010;28;20049;-67
2023/07/19 02:42:58;;;;;;;8.73;8.02;;;;;;;;;;10302469;28;20051;-67
2023/07/19 02:47:54;;;;;;;9.23;8.32;;;;;;;;;;10292429;28;20468;-67
2023/07/19 02:52:51;;;;;;;8.95;8.25;;;;;;;;;;10301032;28;20052;-66
2023/07/19 02:57:47;;;;;;;9.82;8.52;;;;;;;;;;10311002;28;20040;-67
2023/07/19 03:02:46;;;;;;;8.55;7.97;;;;;;;;;;10303201;28;20036;-66
2023/07/19 03:07:45;;;;;;;8.98;8.38;;;;;;;;;;10302390;28;20075;-67
2023/07/19 03:12:42;;;;;;;9.57;8.65;;;;;;;;;;10299428;28;20080;-65
2023/07/19 03:17:39;;;;;;;10.45;9.55;;;;;;;;;;10299536;28;20511;-65
2023/07/19 03:22:35;;;;;;;10.57;9.70;;;;;;;;;;10308007;28;20112;-65
2023/07/19 03:27:32;;;;;;;11.18;10.27;;;;;;;;;;10301048;28;20114;-67
2023/07/19 03:32:29;;;;;;;12.27;11.10;;;;;;;;;;10278037;28;20036;-67
2023/07/19 03:37:26;;;;;;;12.20;11.10;;;;;;;;;;10300712;28;20049;-68
2023/07/19 03:42:22;;;;;;;10.55;9.77;;;;;;;;;;10301774;28;20053;-68
2023/07/19 03:47:19;;;;;;;10.85;10.05;;;;;;;;;;10285402;28;20055;-68
2023/07/19 03:52:15;;;;;;;10.95;9.95;;;;;;;;;;10297713;28;20059;-68
2023/07/19 03:57:12;;;;;;;10.98;10.07;;;;;;;;;;10287786;28;20340;-69
2023/07/19 04:02:09;;;;;;;11.13;10.15;;;;;;;;;;10299466;28;20408;-68
2023/07/19 04:07:06;;;;;;;10.00;9.30;;;;;;;;;;10292005;28;20044;-68
2023/07/19 04:12:03;;;;;;;10.30;9.60;;;;;;;;;;10302150;28;20423;-68
2023/07/19 04:16:59;;;;;;;11.23;10.10;;;;;;;;;;10288302;28;20056;-68
2023/07/19 04:21:59;;;;;;;9.68;8.93;;;;;;;;;;10288877;28;20214;-68
2023/07/19 04:26:55;;;;;;;9.73;9.13;;;;;;;;;;10302064;28;20073;-68
2023/07/19 04:31:51;;;;;;;9.55;8.75;;;;;;;;;;10298962;28;20040;-69
2023/07/19 04:36:48;;;;;;;10.30;9.40;;;;;;;;;;10299370;28;20463;-68
2023/07/19 04:41:45;;;;;;;10.30;9.60;;;;;;;;;;10302366;28;20251;-68
2023/07/19 04:46:41;;;;;;;10.68;9.70;;;;;;;;;;10278740;28;20048;-68
2023/07/19 04:51:38;;;;;;;10.70;9.65;;;;;;;;;;10289995;28;20044;-69
2023/07/19 04:56:35;;;;;;;10.70;9.48;;;;;;;;;;10296187;28;20462;-68
2023/07/19 05:01:31;;;;;;;11.90;10.88;;;;;;;;;;10313156;28;20071;-69
2023/07/19 05:06:29;;;;;;;12.00;11.00;;;;;;;;;;10308950;28;20048;-68
2023/07/19 05:11:26;;;;;;;11.32;10.52;;;;;;;;;;10302009;28;20516;-68
2023/07/19 05:16:22;;;;;;;11.30;10.25;;;;;;;;;;10286826;28;20044;-69
2023/07/19 05:21:18;;;;;;;12.00;11.00;;;;;;;;;;10307420;28;20515;-69
2023/07/19 05:26:15;;;;;;;10.30;9.50;;;;;;;;;;10293265;28;20075;-69
2023/07/19 05:31:12;;;;;;;11.27;10.45;;;;;;;;;;10310814;28;20098;-69
2023/07/19 05:36:08;;;;;;;11.43;10.52;;;;;;;;;;10309158;28;20136;-69
2023/07/19 05:41:06;;;;;;;11.20;10.40;;;;;;;;;;10294689;28;20122;-70
2023/07/19 05:46:03;;;;;;;11.05;10.25;;;;;;;;;;10300306;28;20056;-70
2023/07/19 05:51:01;;;;;;;10.15;9.35;;;;;;;;;;10311408;28;20082;-70
2023/07/19 05:56:01;;;;;;;10.60;9.80;;;;;;;;;;10305884;28;20084;-70
2023/07/19 06:00:57;;;;;;;10.32;9.63;;;;;;;;;;10404334;22;20052;-70
2023/07/19 06:05:54;;;;;;;10.88;10.07;;;;;;;;;;10338118;28;20045;-70
2023/07/19 06:10:51;;;;;;;13.05;10.70;;;;;;;;;;10387139;22;20568;-72
2023/07/19 06:15:47;;;;;;;10.27;9.38;;;;;;;;;;10382475;28;20074;-71
2023/07/19 06:20:44;;;;;;;9.32;8.73;;;;;;;;;;10389008;27;20046;-72
2023/07/19 06:25:40;;;;;;;9.45;8.75;;;;;;;;;;10403005;27;20050;-71
2023/07/19 06:30:37;;;;;;;11.23;10.32;;;;;;;;;;10388668;27;20064;-71
2023/07/19 06:35:33;;;;;;;9.95;9.23;;;;;;;;;;10390770;27;20067;-71
2023/07/19 06:40:30;;;;;;;9.77;9.07;;;;;;;;;;10402886;27;20052;-71
2023/07/19 06:45:26;;;;;;;10.40;9.18;;;;;;;;;;10397801;27;20426;-71
2023/07/19 06:50:23;;;;;;;11.02;10.20;;;;;;;;;;10374301;28;20461;-71
2023/07/19 06:55:19;;;;;;;10.98;10.07;;;;;;;;;;10389398;27;20105;-71
2023/07/19 07:00:15;;;;;;;9.85;9.13;;;;;;;;;;10394017;27;20056;-71
2023/07/19 07:05:12;;;;;;;11.38;10.30;;;;;;;;;;10394811;28;20052;-71
2023/07/19 07:10:12;;;;;;;9.55;8.85;;;;;;;;;;10392932;27;20056;-71
2023/07/19 07:15:08;;;;;;;10.70;9.90;;;;;;;;;;10394666;28;20047;-71
2023/07/19 07:20:06;;;;;;;11.48;10.68;;;;;;;;;;10395926;27;20499;-71
2023/07/19 07:25:03;;;;;;;10.30;9.60;;;;;;;;;;10372306;27;20538;-71
2023/07/19 07:29:59;;;;;;;9.85;9.15;;;;;;;;;;10395130;27;20495;-71
2023/07/19 07:34:55;;;;;;;10.35;9.65;;;;;;;;;;10390946;28;20541;-71
2023/07/19 07:39:52;;;;;;;11.30;10.32;;;;;;;;;;10411395;22;20061;-72
2023/07/19 07:44:48;;;;;;;10.32;9.52;;;;;;;;;;10345427;28;20072;-72
2023/07/19 07:49:46;;;;;;;9.20;8.50;;;;;;;;;;10354426;28;20052;-71
2023/07/19 07:54:44;;;;;;;10.05;9.27;;;;;;;;;;10344319;28;20044;-71
2023/07/19 07:59:43;;;;;;;8.20;7.60;;;;;;;;;;10343555;28;20041;-71
2023/07/19 08:04:39;;;;;;;8.05;7.40;;;;;;;;;;10331316;28;20041;-71
2023/07/19 08:09:35;;;;;;;7.30;6.70;;;;;;;;;;10325761;28;20067;-72
2023/07/19 08:14:32;;;;;;;7.43;6.82;;;;;;;;;;10335260;28;20132;-72
2023/07/19 08:19:28;;;;;;;7.60;6.88;;;;;;;;;;10354778;22;20072;-71
2023/07/19 08:24:24;;;;;;;6.93;6.40;;;;;;;;;;10346351;28;20071;-71
2023/07/19 08:29:21;;;;;;;6.65;6.15;;;;;;;;;;10332929;28;20569;-71
2023/07/19 08:34:17;;;;;;;6.10;5.60;;;;;;;;;;10321237;28;20052;-72
2023/07/19 08:39:14;;;;;;;7.35;6.65;;;;;;;;;;10338156;28;20060;-72
2023/07/19 08:44:11;;;;;;;7.03;6.43;;;;;;;;;;10349128;28;20651;-71
2023/07/19 08:49:07;;;;;;;6.68;6.18;;;;;;;;;;10479314;22;20051;-71
2023/07/19 08:54:03;;;;;;;7.25;6.65;;;;;;;;;;10369167;28;20090;-71
2023/07/19 08:59:00;;;;;;;5.97;5.38;;;;;;;;;;10350562;28;20048;-72
2023/07/19 09:03:56;;;;;;;5.78;5.28;;;;;;;;;;10364623;28;20044;-72
2023/07/19 09:08:52;;;;;;;5.97;5.38;;;;;;;;;;10361825;28;20123;-72
2023/07/19 09:13:53;;;;;;;7.00;6.30;;;;;;;;;;10359638;28;20044;-72
2023/07/19 09:18:50;;;;;;;6.90;6.18;;;;;;;;;;10386694;22;20506;-71
2023/07/19 09:23:50;;;;;;;6.68;6.15;;;;;;;;;;10338362;28;20058;-71
2023/07/19 09:28:46;;;;;;;5.85;5.35;;;;;;;;;;10362207;28;20090;-71
2023/07/19 09:33:43;;;;;;;6.05;5.45;;;;;;;;;;10369452;28;20510;-72
2023/07/19 09:38:53;;;;;;;6.47;5.97;;;;;;;;;;10382296;22;20044;-71
2023/07/19 09:44:07;;;;;;;;;;;;;;;;;;;;;
2023/07/19 09:49:22;;;;;;;6.20;5.57;;;;;;;;;;10398079;27;20130;-71
2023/07/19 09:54:18;;;;;;;6.32;5.82;;;;;;;;;;10391686;27;20105;-72
2023/07/19 09:59:33;;;;;;;6.45;5.85;;;;;;;;;;10373267;22;20667;-71
2023/07/19 10:04:33;;;;;;;6.15;5.63;;;;;;;;;;10330218;28;20048;-71
2023/07/19 10:09:47;;;;;;;5.70;5.28;;;;;;;;;;10477030;22;20059;-71
2023/07/19 10:14:54;;;;;;;5.95;5.45;;;;;;;;;;10380986;28;20050;-71
2023/07/19 10:19:57;;;;;;;6.60;6.00;;;;;;;;;;10383404;28;20105;-71
2023/07/19 10:25:03;;;;;;;5.97;5.43;;;;;;;;;;10377422;28;20075;-71
2023/07/19 10:30:03;;;;;;;6.82;6.28;;;;;;;;;;10397621;28;20604;-71
2023/07/19 10:35:02;;;;;;;7.05;6.45;;;;;;;;;;10388319;28;20423;-71
2023/07/19 10:39:58;;;;;;;7.38;6.45;;;;;;;;;;10348699;22;20122;-71
2023/07/19 10:50:23;;;;;;;7.03;6.53;;;;;;;;;;10326867;28;20500;-71
2023/07/19 10:55:20;;;;;;;7.05;6.43;;;;;;;;;;10331044;28;20125;-71
2023/07/19 11:00:37;;;;;;;6.93;6.35;;;;;;;;;;10330199;28;20045;-71
2023/07/19 11:05:39;;;;;;;7.50;6.80;;;;;;;;;;10338250;28;20048;-71
2023/07/19 11:10:35;;;;;;;6.85;6.32;;;;;;;;;;10339511;28;20049;-71
2023/07/19 11:15:32;;;;;;;6.97;6.38;;;;;;;;;;10331692;28;20048;-71
2023/07/19 11:20:31;;;;;;;6.63;6.13;;;;;;;;;;10336310;28;20106;-71
2023/07/19 11:25:27;;;;;;;7.18;6.57;;;;;;;;;;10320657;28;20052;-71
2023/07/19 11:30:35;;;;;;;7.50;6.90;;;;;;;;;;10341442;28;20090;-71
2023/07/19 11:35:32;;;;;;;7.57;6.88;;;;;;;;;;10335151;28;20044;-71
2023/07/19 11:40:28;;;;;;;7.43;6.65;;;;;;;;;;10335003;28;20644;-71
2023/07/19 11:45:26;;;;;;;7.60;6.90;;;;;;;;;;10329348;28;20048;-71
2023/07/19 11:50:23;;;;;;;6.57;6.07;;;;;;;;;;10325333;28;20085;-71
2023/07/19 11:55:19;;;;;;;7.47;6.78;;;;;;;;;;10335942;28;20495;-71
2023/07/19 12:00:16;;;;;;;7.45;6.80;;;;;;;;;;10336552;28;20065;-71
2023/07/19 12:05:14;;;;;;;7.30;6.60;;;;;;;;;;10341705;28;20117;-71
2023/07/19 12:10:11;;;;;;;7.57;6.88;;;;;;;;;;10335841;28;20056;-71
2023/07/19 12:15:09;;;;;;;7.20;6.60;;;;;;;;;;10338396;28;20102;-71
2023/07/19 12:20:06;;;;;;;7.30;6.60;;;;;;;;;;10329003;28;20045;-71
2023/07/19 12:25:03;;;;;;;7.50;6.85;;;;;;;;;;10339731;28;20488;-71
2023/07/19 12:30:00;;;;;;;7.28;6.57;;;;;;;;;;10329434;28;20530;-71
2023/07/19 12:35:00;;;;;;;8.35;7.47;;;;;;;;;;10331408;28;20105;-71
2023/07/19 12:39:56;;;;;;;7.63;6.85;;;;;;;;;;10337630;28;20097;-71
2023/07/19 12:44:52;;;;;;;8.77;6.85;;;;;;;;;;10345287;28;20447;-71
2023/07/19 12:49:48;;;;;;;7.18;6.47;;;;;;;;;;10331204;28;20070;-70
2023/07/19 12:54:45;;;;;;;7.75;7.15;;;;;;;;;;10319275;28;20052;-71
2023/07/19 12:59:45;;;;;;;7.20;6.50;;;;;;;;;;10349770;22;20410;-71
2023/07/19 13:04:41;;;;;;;7.10;6.50;;;;;;;;;;10383739;28;20066;-71
2023/07/19 13:09:38;;;;;;;7.07;6.47;;;;;;;;;;10404913;27;20048;-71
2023/07/19 13:14:34;;;;;;;6.47;5.90;;;;;;;;;;10425146;27;20043;-72
2023/07/19 13:19:31;;;;;;;6.57;6.05;;;;;;;;;;10441590;22;20507;-71
2023/07/19 13:24:27;;;;;;;6.45;5.95;;;;;;;;;;10346643;28;20074;-71
2023/07/19 13:29:23;;;;;;;6.70;6.00;;;;;;;;;;10334016;28;20526;-71
2023/07/19 13:34:20;;;;;;;6.90;6.30;;;;;;;;;;10382910;28;20089;-71
2023/07/19 13:39:16;;;;;;;6.78;5.82;;;;;;;;;;10373536;27;20067;-70
2023/07/19 13:44:13;;;;;;;7.07;6.38;;;;;;;;;;10371656;27;20062;-72
2023/07/19 13:49:10;;;;;;;7.63;6.93;;;;;;;;;;10378537;28;20139;-71
2023/07/19 13:54:06;;;;;;;7.60;6.70;;;;;;;;;;10369477;28;20510;-71
2023/07/19 13:59:02;;;;;;;7.10;6.43;;;;;;;;;;10377748;27;20077;-72
2023/07/19 14:03:58;;;;;;;8.85;7.53;;;;;;;;;;10386805;27;20039;-70
2023/07/19 14:14:44;;;;;;;8.20;7.50;;;;;;;;;;10330937;22;20084;-71
2023/07/19 14:20:51;;;;;;;12.45;11.30;;;;;;;;;;10495574;22;20098;-71
2023/07/19 14:25:40;;;;;;;10.57;9.77;;;;;;;;;;10381447;27;20071;-72
2023/07/19 14:30:36;;;;;;;9.50;8.70;;;;;;;;;;10703357;22;20056;-72
2023/07/19 14:35:32;;;;;;;9.43;8.55;;;;;;;;;;10332939;28;20048;-72
2023/07/19 14:40:29;;;;;;;8.77;7.90;;;;;;;;;;10732323;22;20482;-71
2023/07/19 14:45:28;;;;;;;7.65;6.82;;;;;;;;;;10393871;27;20438;-71
2023/07/19 14:50:25;;;;;;;7.45;6.55;;;;;;;;;;10389512;28;20118;-72
2023/07/19 14:55:21;;;;;;;6.80;6.10;;;;;;;;;;10390091;27;20059;-72
2023/07/19 15:11:21;;;;;;;6.53;5.93;;;;;;;;;;10417953;22;20519;-72
2023/07/19 15:16:18;;;;;;;8.15;7.30;;;;;;;;;;10347550;28;20594;-70
2023/07/19 15:21:14;;;;;;;8.95;6.80;;;;;;;;;;10376682;27;20047;-70
2023/07/19 15:26:11;;;;;;;7.32;6.68;;;;;;;;;;10372384;28;20535;-69
2023/07/19 15:31:28;;;;;;;9.02;8.27;;;;;;;;;;10385261;28;20548;-69
2023/07/19 15:36:26;;;;;;;8.30;7.55;;;;;;;;;;10388543;27;20050;-70
2023/07/19 15:41:22;;;;;;;8.02;7.30;;;;;;;;;;10376356;28;20130;-71
2023/07/19 15:46:20;;;;;;;8.23;7.43;;;;;;;;;;10393253;27;20048;-70
2023/07/19 15:51:16;;;;;;;7.90;7.28;;;;;;;;;;10391564;27;20430;-69
2023/07/19 15:56:13;;;;;;;7.63;6.97;;;;;;;;;;10383928;27;20044;-68
2023/07/19 16:01:09;;;;;;;7.55;6.47;;;;;;;;;;10393450;27;20079;-68
2023/07/19 16:06:07;;;;;;;7.95;7.28;;;;;;;;;;10385029;27;20040;-69
2023/07/19 16:11:04;;;;;;;7.82;7.22;;;;;;;;;;10383311;28;20050;-67
2023/07/19 16:16:04;;;;;;;7.85;7.25;;;;;;;;;;10389772;27;20056;-71
2023/07/19 16:21:01;;;;;;;8.32;7.53;;;;;;;;;;10371517;27;20132;-69
2023/07/19 16:25:58;;;;;;;7.43;6.82;;;;;;;;;;10379815;27;20047;-70
2023/07/19 16:30:54;;;;;;;7.65;6.88;;;;;;;;;;10377294;27;20047;-70
2023/07/19 16:35:51;;;;;;;7.00;6.40;;;;;;;;;;10368984;28;20477;-70
2023/07/19 16:40:47;;;;;;;8.02;7.22;;;;;;;;;;10390108;28;20537;-70
2023/07/19 16:45:43;;;;;;;8.02;7.28;;;;;;;;;;10384536;27;20051;-70
2023/07/19 16:50:40;;;;;;;10.52;9.05;;;;;;;;;;10391271;28;20056;-70
2023/07/19 16:55:38;;;;;;;7.57;6.97;;;;;;;;;;10373789;28;20047;-70
2023/07/19 17:00:34;;;;;;;8.80;7.90;;;;;;;;;;10390060;28;20472;-70
2023/07/19 17:05:31;;;;;;;8.25;7.50;;;;;;;;;;10381548;28;20472;-70
2023/07/19 17:10:31;;;;;;;9.15;8.30;;;;;;;;;;10372280;22;20468;-71
2023/07/19 17:15:28;;;;;;;10.13;7.40;;;;;;;;;;10387110;28;20522;-70
2023/07/19 17:20:25;;;;;;;7.53;6.72;;;;;;;;;;10373315;28;20052;-71
2023/07/19 17:25:24;;;;;;;7.50;6.90;;;;;;;;;;10366023;28;20774;-70
2023/07/19 17:30:20;;;;;;;6.80;6.20;;;;;;;;;;10376985;28;20505;-70
2023/07/19 17:35:17;;;;;;;7.65;6.97;;;;;;;;;;10372366;28;20837;-70
2023/07/19 17:40:13;;;;;;;7.38;6.68;;;;;;;;;;10365336;22;20151;-70
2023/07/19 17:45:10;;;;;;;7.10;6.50;;;;;;;;;;10306587;28;20114;-70
2023/07/19 17:50:09;;;;;;;6.57;6.05;;;;;;;;;;10334434;28;20083;-70
2023/07/19 17:55:06;;;;;;;8.40;6.60;;;;;;;;;;10340542;28;20048;-70
2023/07/19 18:00:04;;;;;;;7.82;7.10;;;;;;;;;;10347047;28;20078;-70
2023/07/19 18:05:03;;;;;;;7.93;7.22;;;;;;;;;;10345625;28;20531;-70
2023/07/19 18:09:59;;;;;;;9.80;8.07;;;;;;;;;;10344148;28;20052;-70
2023/07/19 18:14:56;;;;;;;9.07;8.27;;;;;;;;;;10338688;28;20048;-70
2023/07/19 18:19:52;;;;;;;8.20;7.45;;;;;;;;;;10333034;28;20577;-70
2023/07/19 18:24:49;;;;;;;9.23;8.45;;;;;;;;;;10341991;28;20052;-71
2023/07/19 18:29:48;;;;;;;7.78;7.15;;;;;;;;;;10357965;28;20036;-71
2023/07/19 18:34:44;;;;;;;8.18;7.10;;;;;;;;;;10318998;28;20044;-70
2023/07/19 18:39:40;;;;;;;7.45;6.85;;;;;;;;;;10353716;28;20048;-70
2023/07/19 18:44:37;;;;;;;7.95;7.25;;;;;;;;;;10347024;28;20045;-71
2023/07/19 18:49:35;;;;;;;7.35;6.72;;;;;;;;;;10346902;28;20497;-70
2023/07/19 18:54:31;;;;;;;7.50;6.57;;;;;;;;;;10353330;28;20052;-70
2023/07/19 18:59:28;;;;;;;7.68;7.07;;;;;;;;;;10357138;28;20158;-70
2023/07/19 19:04:24;;;;;;;7.70;7.00;;;;;;;;;;10347718;28;20094;-71
2023/07/19 19:09:21;;;;;;;7.68;6.97;;;;;;;;;;10371674;22;20407;-71
2023/07/19 19:14:17;;;;;;;7.72;7.13;;;;;;;;;;10405742;27;20079;-70
2023/07/19 19:19:14;;;;;;;7.93;7.30;;;;;;;;;;10388947;28;20059;-71
2023/07/19 19:24:10;;;;;;;8.65;7.95;;;;;;;;;;10384488;28;20677;-71
2023/07/19 19:29:07;;;;;;;8.23;7.53;;;;;;;;;;10393499;27;20059;-70
2023/07/19 19:34:04;;;;;;;8.98;8.15;;;;;;;;;;10392871;27;20147;-71
2023/07/19 19:39:00;;;;;;;7.85;7.15;;;;;;;;;;10389647;27;20047;-70
2023/07/19 19:44:04;;;;;;;7.85;7.15;;;;;;;;;;10402102;27;20047;-71
2023/07/19 19:49:01;;;;;;;7.93;7.32;;;;;;;;;;10385982;28;20049;-71
2023/07/19 19:53:58;;;;;;;7.65;7.10;;;;;;;;;;10392163;27;20048;-70
2023/07/19 19:58:54;;;;;;;8.60;7.90;;;;;;;;;;10382727;27;20063;-71
2023/07/19 20:03:50;;;;;;;6.90;6.40;;;;;;;;;;10380129;27;20040;-70
2023/07/19 20:13:45;;;;;;;8.57;7.88;;;;;;;;;;10229735;28;20073;-71
2023/07/19 20:18:41;;;;;;;9.00;8.20;;;;;;;;;;10211117;28;20042;-70
2023/07/19 20:23:41;;;;;;;8.38;7.65;;;;;;;;;;10228761;28;20045;-70
2023/07/19 20:28:37;;;;;;;8.48;7.78;;;;;;;;;;10225680;28;20041;-71
2023/07/19 20:33:34;;;;;;;8.73;7.82;;;;;;;;;;10223143;28;20099;-71
2023/07/19 20:38:31;;;;;;;8.52;7.82;;;;;;;;;;10233746;28;20084;-70
2023/07/19 20:43:30;;;;;;;9.07;8.35;;;;;;;;;;10224644;28;20516;-70
2023/07/19 20:48:30;;;;;;;7.70;7.20;;;;;;;;;;10223672;28;20468;-70
2023/07/19 20:53:29;;;;;;;8.10;7.30;;;;;;;;;;10225511;28;20149;-70
2023/07/19 20:58:26;;;;;;;8.63;7.82;;;;;;;;;;10218710;28;20041;-68
2023/07/19 21:03:22;;;;;;;10.70;9.88;;;;;;;;;;10228727;28;20473;-65
2023/07/19 21:08:18;;;;;;;8.65;7.95;;;;;;;;;;10211780;28;21879;-67
2023/07/19 21:13:15;;;;;;;9.00;8.13;;;;;;;;;;10252297;28;20097;-66
2023/07/19 21:18:11;;;;;;;8.88;7.97;;;;;;;;;;10248045;28;20519;-66
2023/07/19 21:23:07;;;;;;;9.38;8.57;;;;;;;;;;10247335;28;20041;-67
2023/07/19 21:28:04;;;;;;;8.07;7.35;;;;;;;;;;10242244;28;20111;-68
2023/07/19 21:33:00;;;;;;;7.32;6.65;;;;;;;;;;10250961;28;20099;-67
2023/07/19 21:37:57;;;;;;;7.80;7.20;;;;;;;;;;10257226;28;20084;-67
2023/07/19 21:42:53;;;;;;;7.63;6.88;;;;;;;;;;10250462;28;20052;-68
2023/07/19 21:47:49;;;;;;;7.60;7.00;;;;;;;;;;10259806;28;20049;-69
2023/07/19 21:52:46;;;;;;;6.78;6.25;;;;;;;;;;10264352;28;20513;-69
2023/07/19 21:57:42;;;;;;;7.05;6.45;;;;;;;;;;10263297;28;20040;-69
2023/07/19 22:02:38;;;;;;;6.78;6.28;;;;;;;;;;10258544;28;20439;-69
2023/07/19 22:07:35;;;;;;;6.95;6.45;;;;;;;;;;10262975;28;20580;-68
2023/07/19 22:12:31;;;;;;;8.20;6.60;;;;;;;;;;10233096;28;20050;-68
2023/07/19 22:17:28;;;;;;;10.13;7.18;;;;;;;;;;10226526;28;20057;-68
2023/07/19 22:22:24;;;;;;;8.40;7.55;;;;;;;;;;10209754;28;20498;-68
2023/07/19 22:27:20;;;;;;;9.63;7.40;;;;;;;;;;10218380;28;20045;-67
2023/07/19 22:32:16;;;;;;;7.00;6.50;;;;;;;;;;10215674;28;20058;-68
2023/07/19 22:37:13;;;;;;;7.68;7.07;;;;;;;;;;10212937;28;20068;-67
2023/07/19 22:42:09;;;;;;;7.35;6.85;;;;;;;;;;10217249;28;20100;-67
2023/07/19 22:47:06;;;;;;;7.60;7.00;;;;;;;;;;10219441;28;20053;-67
2023/07/19 22:52:02;;;;;;;7.15;6.65;;;;;;;;;;10211886;28;20156;-67
2023/07/19 22:56:59;;;;;;;7.40;6.85;;;;;;;;;;10219125;28;20049;-67
2023/07/19 23:01:55;;;;;;;7.30;6.80;;;;;;;;;;10206162;28;20513;-67
2023/07/19 23:06:51;;;;;;;7.57;6.88;;;;;;;;;;10212513;28;20049;-67
2023/07/19 23:11:48;;;;;;;7.90;7.30;;;;;;;;;;10233772;28;20044;-67
2023/07/19 23:16:44;;;;;;;7.15;6.55;;;;;;;;;;10251800;28;20076;-68
2023/07/19 23:21:40;;;;;;;7.10;6.60;;;;;;;;;;10249628;28;20044;-68
2023/07/19 23:26:37;;;;;;;7.60;6.93;;;;;;;;;;10253477;28;20045;-68
2023/07/19 23:31:33;;;;;;;7.03;6.43;;;;;;;;;;10256840;28;20061;-69
2023/07/19 23:36:30;;;;;;;7.32;6.72;;;;;;;;;;10258859;28;20464;-67
2023/07/19 23:41:26;;;;;;;7.28;6.68;;;;;;;;;;10257098;28;20041;-67
2023/07/19 23:46:22;;;;;;;7.25;6.55;;;;;;;;;;10254247;28;20258;-67
2023/07/19 23:51:19;;;;;;;6.90;6.30;;;;;;;;;;10257506;28;20124;-67
2023/07/19 23:56:15;;;;;;;7.28;6.68;;;;;;;;;;10255987;28;20079;-67
